sensor_id;sensor_type;location;lat;lon;timestamp;P1;durP1;ratioP1;P2;durP2;ratioP2
71937;SDS011;59810;48.800;9.086;2023-07-29T00:00:46;3.50;;;1.00;;
71937;SDS011;59810;48.800;9.086;2023-07-29T00:03:12;4.20;;;0.97;;
71937;SDS011;59810;48.800;9.086;2023-07-29T00:05:37;3.83;;;1.13;;
71937;SDS011;59810;48.800;9.086;2023-07-29T00:08:06;3.97;;;1.15;;
71937;SDS011;59810;48.800;9.086;2023-07-29T00:10:37;3.70;;;0.95;;
71937;SDS011;59810;48.800;9.086;2023-07-29T00:13:03;2.83;;;0.88;;
71937;SDS011;59810;48.800;9.086;2023-07-29T00:15:29;4.23;;;1.00;;
71937;SDS011;59810;48.800;9.086;2023-07-29T00:17:57;2.90;;;0.95;;
71937;SDS011;59810;48.800;9.086;2023-07-29T00:20:22;3.40;;;1.10;;
71937;SDS011;59810;48.800;9.086;2023-07-29T00:22:47;6.47;;;1.10;;
71937;SDS011;59810;48.800;9.086;2023-07-29T00:25:15;3.57;;;1.10;;
71937;SDS011;59810;48.800;9.086;2023-07-29T00:27:41;3.50;;;1.05;;
71937;SDS011;59810;48.800;9.086;2023-07-29T00:30:07;3.55;;;1.17;;
71937;SDS011;59810;48.800;9.086;2023-07-29T00:32:33;2.33;;;0.90;;
71937;SDS011;59810;48.800;9.086;2023-07-29T00:34:58;4.87;;;1.47;;
71937;SDS011;59810;48.800;9.086;2023-07-29T00:37:26;2.50;;;1.00;;
71937;SDS011;59810;48.800;9.086;2023-07-29T00:39:52;3.22;;;1.00;;
71937;SDS011;59810;48.800;9.086;2023-07-29T00:42:17;4.07;;;1.20;;
71937;SDS011;59810;48.800;9.086;2023-07-29T00:44:43;3.00;;;1.20;;
71937;SDS011;59810;48.800;9.086;2023-07-29T00:47:08;3.00;;;1.13;;
71937;SDS011;59810;48.800;9.086;2023-07-29T00:49:35;4.20;;;1.10;;
71937;SDS011;59810;48.800;9.086;2023-07-29T00:52:00;4.63;;;1.20;;
71937;SDS011;59810;48.800;9.086;2023-07-29T00:54:26;4.40;;;1.00;;
71937;SDS011;59810;48.800;9.086;2023-07-29T00:56:51;3.93;;;1.30;;
71937;SDS011;59810;48.800;9.086;2023-07-29T00:59:17;5.17;;;1.00;;
71937;SDS011;59810;48.800;9.086;2023-07-29T01:01:42;3.30;;;0.90;;
71937;SDS011;59810;48.800;9.086;2023-07-29T01:04:07;3.63;;;1.10;;
71937;SDS011;59810;48.800;9.086;2023-07-29T01:09:27;3.55;;;1.17;;
71937;SDS011;59810;48.800;9.086;2023-07-29T01:12:18;3.17;;;1.13;;
71937;SDS011;59810;48.800;9.086;2023-07-29T01:17:48;3.15;;;1.02;;
71937;SDS011;59810;48.800;9.086;2023-07-29T01:20:17;2.88;;;1.50;;
71937;SDS011;59810;48.800;9.086;2023-07-29T01:22:47;4.45;;;1.00;;
71937;SDS011;59810;48.800;9.086;2023-07-29T01:25:13;2.63;;;1.00;;
71937;SDS011;59810;48.800;9.086;2023-07-29T01:27:40;4.18;;;1.10;;
71937;SDS011;59810;48.800;9.086;2023-07-29T01:30:07;2.80;;;1.00;;
71937;SDS011;59810;48.800;9.086;2023-07-29T01:35:07;2.93;;;1.27;;
71937;SDS011;59810;48.800;9.086;2023-07-29T01:37:35;3.35;;;1.10;;
71937;SDS011;59810;48.800;9.086;2023-07-29T01:40:03;3.03;;;0.98;;
71937;SDS011;59810;48.800;9.086;2023-07-29T01:42:30;3.58;;;1.20;;
71937;SDS011;59810;48.800;9.086;2023-07-29T01:44:56;2.63;;;1.00;;
71937;SDS011;59810;48.800;9.086;2023-07-29T01:47:22;3.72;;;1.15;;
71937;SDS011;59810;48.800;9.086;2023-07-29T01:49:47;2.93;;;1.10;;
71937;SDS011;59810;48.800;9.086;2023-07-29T01:52:15;3.27;;;1.00;;
71937;SDS011;59810;48.800;9.086;2023-07-29T01:54:41;1.77;;;0.77;;
71937;SDS011;59810;48.800;9.086;2023-07-29T01:57:06;4.70;;;1.10;;
71937;SDS011;59810;48.800;9.086;2023-07-29T01:59:31;3.10;;;1.00;;
71937;SDS011;59810;48.800;9.086;2023-07-29T02:01:57;3.13;;;1.27;;
71937;SDS011;59810;48.800;9.086;2023-07-29T02:04:22;4.30;;;1.40;;
71937;SDS011;59810;48.800;9.086;2023-07-29T02:06:47;3.07;;;1.13;;
71937;SDS011;59810;48.800;9.086;2023-07-29T02:09:13;3.17;;;1.20;;
71937;SDS011;59810;48.800;9.086;2023-07-29T02:11:38;3.50;;;1.20;;
71937;SDS011;59810;48.800;9.086;2023-07-29T02:14:03;3.33;;;1.10;;
71937;SDS011;59810;48.800;9.086;2023-07-29T02:16:29;2.55;;;1.00;;
71937;SDS011;59810;48.800;9.086;2023-07-29T02:18:54;3.47;;;1.13;;
71937;SDS011;59810;48.800;9.086;2023-07-29T02:21:22;3.30;;;1.27;;
71937;SDS011;59810;48.800;9.086;2023-07-29T02:23:47;3.87;;;1.13;;
71937;SDS011;59810;48.800;9.086;2023-07-29T02:26:12;5.73;;;1.30;;
71937;SDS011;59810;48.800;9.086;2023-07-29T02:28:38;6.37;;;1.37;;
71937;SDS011;59810;48.800;9.086;2023-07-29T02:31:16;2.67;;;0.93;;
71937;SDS011;59810;48.800;9.086;2023-07-29T02:33:45;4.00;;;1.40;;
71937;SDS011;59810;48.800;9.086;2023-07-29T02:36:11;4.77;;;1.20;;
71937;SDS011;59810;48.800;9.086;2023-07-29T02:38:37;4.28;;;1.40;;
71937;SDS011;59810;48.800;9.086;2023-07-29T02:41:03;4.43;;;1.10;;
71937;SDS011;59810;48.800;9.086;2023-07-29T02:43:28;2.97;;;1.20;;
71937;SDS011;59810;48.800;9.086;2023-07-29T02:45:56;5.83;;;1.37;;
71937;SDS011;59810;48.800;9.086;2023-07-29T02:48:24;4.30;;;1.27;;
71937;SDS011;59810;48.800;9.086;2023-07-29T02:50:50;6.03;;;1.30;;
71937;SDS011;59810;48.800;9.086;2023-07-29T02:53:16;4.73;;;1.40;;
71937;SDS011;59810;48.800;9.086;2023-07-29T02:55:42;3.97;;;1.25;;
71937;SDS011;59810;48.800;9.086;2023-07-29T02:58:07;3.57;;;1.00;;
71937;SDS011;59810;48.800;9.086;2023-07-29T03:00:33;5.10;;;1.20;;
71937;SDS011;59810;48.800;9.086;2023-07-29T03:02:59;3.00;;;0.97;;
71937;SDS011;59810;48.800;9.086;2023-07-29T03:05:26;3.90;;;1.30;;
71937;SDS011;59810;48.800;9.086;2023-07-29T03:07:55;3.53;;;1.10;;
71937;SDS011;59810;48.800;9.086;2023-07-29T03:10:22;3.28;;;1.40;;
71937;SDS011;59810;48.800;9.086;2023-07-29T03:12:50;3.73;;;1.30;;
71937;SDS011;59810;48.800;9.086;2023-07-29T03:15:15;4.38;;;1.42;;
71937;SDS011;59810;48.800;9.086;2023-07-29T03:17:41;4.50;;;1.30;;
71937;SDS011;59810;48.800;9.086;2023-07-29T03:20:06;3.27;;;1.10;;
71937;SDS011;59810;48.800;9.086;2023-07-29T03:22:32;5.00;;;1.52;;
71937;SDS011;59810;48.800;9.086;2023-07-29T03:24:58;3.67;;;1.23;;
71937;SDS011;59810;48.800;9.086;2023-07-29T03:27:23;4.77;;;1.40;;
71937;SDS011;59810;48.800;9.086;2023-07-29T03:29:48;3.40;;;1.17;;
71937;SDS011;59810;48.800;9.086;2023-07-29T03:32:16;4.93;;;1.30;;
71937;SDS011;59810;48.800;9.086;2023-07-29T03:34:42;3.27;;;1.30;;
71937;SDS011;59810;48.800;9.086;2023-07-29T03:37:07;5.60;;;1.50;;
71937;SDS011;59810;48.800;9.086;2023-07-29T03:39:35;3.90;;;1.50;;
71937;SDS011;59810;48.800;9.086;2023-07-29T03:42:01;5.17;;;1.60;;
71937;SDS011;59810;48.800;9.086;2023-07-29T03:44:28;3.57;;;1.30;;
71937;SDS011;59810;48.800;9.086;2023-07-29T03:46:54;3.60;;;1.20;;
71937;SDS011;59810;48.800;9.086;2023-07-29T03:49:21;4.55;;;1.30;;
71937;SDS011;59810;48.800;9.086;2023-07-29T03:51:47;5.30;;;1.20;;
71937;SDS011;59810;48.800;9.086;2023-07-29T03:54:12;3.63;;;1.60;;
71937;SDS011;59810;48.800;9.086;2023-07-29T03:56:37;7.67;;;1.40;;
71937;SDS011;59810;48.800;9.086;2023-07-29T03:59:03;4.53;;;1.33;;
71937;SDS011;59810;48.800;9.086;2023-07-29T04:01:32;4.20;;;1.67;;
71937;SDS011;59810;48.800;9.086;2023-07-29T04:03:58;4.00;;;1.40;;
71937;SDS011;59810;48.800;9.086;2023-07-29T04:06:24;4.90;;;1.90;;
71937;SDS011;59810;48.800;9.086;2023-07-29T04:08:49;3.85;;;1.40;;
71937;SDS011;59810;48.800;9.086;2023-07-29T04:11:15;4.70;;;1.50;;
71937;SDS011;59810;48.800;9.086;2023-07-29T04:13:43;6.30;;;1.60;;
71937;SDS011;59810;48.800;9.086;2023-07-29T04:16:10;5.00;;;1.40;;
71937;SDS011;59810;48.800;9.086;2023-07-29T04:18:35;4.37;;;1.40;;
71937;SDS011;59810;48.800;9.086;2023-07-29T04:21:04;3.80;;;1.27;;
71937;SDS011;59810;48.800;9.086;2023-07-29T04:23:31;4.50;;;1.55;;
71937;SDS011;59810;48.800;9.086;2023-07-29T04:25:57;4.73;;;1.40;;
71937;SDS011;59810;48.800;9.086;2023-07-29T04:28:24;5.55;;;1.75;;
71937;SDS011;59810;48.800;9.086;2023-07-29T04:30:49;4.37;;;1.43;;
71937;SDS011;59810;48.800;9.086;2023-07-29T04:33:15;5.17;;;1.37;;
71937;SDS011;59810;48.800;9.086;2023-07-29T04:35:40;5.13;;;1.67;;
71937;SDS011;59810;48.800;9.086;2023-07-29T04:38:05;4.10;;;1.60;;
71937;SDS011;59810;48.800;9.086;2023-07-29T04:40:33;5.80;;;1.70;;
71937;SDS011;59810;48.800;9.086;2023-07-29T04:43:01;5.95;;;2.05;;
71937;SDS011;59810;48.800;9.086;2023-07-29T04:45:29;6.73;;;1.97;;
71937;SDS011;59810;48.800;9.086;2023-07-29T04:47:56;5.32;;;2.03;;
71937;SDS011;59810;48.800;9.086;2023-07-29T04:50:21;3.85;;;1.60;;
71937;SDS011;59810;48.800;9.086;2023-07-29T04:52:49;7.27;;;1.90;;
71937;SDS011;59810;48.800;9.086;2023-07-29T04:55:14;4.85;;;1.77;;
71937;SDS011;59810;48.800;9.086;2023-07-29T04:57:40;7.03;;;2.63;;
71937;SDS011;59810;48.800;9.086;2023-07-29T05:00:06;6.53;;;2.50;;
71937;SDS011;59810;48.800;9.086;2023-07-29T05:02:31;6.53;;;2.20;;
71937;SDS011;59810;48.800;9.086;2023-07-29T05:04:57;6.35;;;2.35;;
71937;SDS011;59810;48.800;9.086;2023-07-29T05:07:22;6.23;;;2.20;;
71937;SDS011;59810;48.800;9.086;2023-07-29T05:09:48;6.97;;;2.50;;
71937;SDS011;59810;48.800;9.086;2023-07-29T05:12:16;5.15;;;2.17;;
71937;SDS011;59810;48.800;9.086;2023-07-29T05:14:41;5.30;;;2.30;;
71937;SDS011;59810;48.800;9.086;2023-07-29T05:17:06;4.80;;;2.10;;
71937;SDS011;59810;48.800;9.086;2023-07-29T05:19:32;5.30;;;1.90;;
71937;SDS011;59810;48.800;9.086;2023-07-29T05:21:57;5.57;;;1.83;;
71937;SDS011;59810;48.800;9.086;2023-07-29T05:24:23;6.77;;;1.73;;
71937;SDS011;59810;48.800;9.086;2023-07-29T05:26:48;5.87;;;1.77;;
71937;SDS011;59810;48.800;9.086;2023-07-29T05:29:16;5.25;;;1.50;;
71937;SDS011;59810;48.800;9.086;2023-07-29T05:31:42;4.65;;;1.42;;
71937;SDS011;59810;48.800;9.086;2023-07-29T05:34:07;4.73;;;1.40;;
71937;SDS011;59810;48.800;9.086;2023-07-29T05:36:32;5.77;;;1.50;;
71937;SDS011;59810;48.800;9.086;2023-07-29T05:38:58;5.50;;;1.30;;
71937;SDS011;59810;48.800;9.086;2023-07-29T05:41:23;4.40;;;1.40;;
71937;SDS011;59810;48.800;9.086;2023-07-29T05:43:49;5.90;;;1.40;;
71937;SDS011;59810;48.800;9.086;2023-07-29T05:46:14;4.27;;;1.50;;
71937;SDS011;59810;48.800;9.086;2023-07-29T05:48:39;4.00;;;1.30;;
71937;SDS011;59810;48.800;9.086;2023-07-29T05:51:05;4.77;;;1.30;;
71937;SDS011;59810;48.800;9.086;2023-07-29T05:53:30;3.55;;;1.10;;
71937;SDS011;59810;48.800;9.086;2023-07-29T05:55:56;4.47;;;1.50;;
71937;SDS011;59810;48.800;9.086;2023-07-29T05:58:21;4.07;;;1.20;;
71937;SDS011;59810;48.800;9.086;2023-07-29T06:00:47;4.03;;;1.43;;
71937;SDS011;59810;48.800;9.086;2023-07-29T06:03:14;2.83;;;1.00;;
71937;SDS011;59810;48.800;9.086;2023-07-29T06:05:40;4.50;;;1.10;;
71937;SDS011;59810;48.800;9.086;2023-07-29T06:08:05;4.40;;;1.10;;
71937;SDS011;59810;48.800;9.086;2023-07-29T06:10:30;3.77;;;1.40;;
71937;SDS011;59810;48.800;9.086;2023-07-29T06:12:56;3.47;;;1.23;;
71937;SDS011;59810;48.800;9.086;2023-07-29T06:15:21;3.30;;;1.20;;
71937;SDS011;59810;48.800;9.086;2023-07-29T06:17:49;2.85;;;1.13;;
71937;SDS011;59810;48.800;9.086;2023-07-29T06:20:14;4.20;;;1.20;;
71937;SDS011;59810;48.800;9.086;2023-07-29T06:22:40;5.35;;;1.17;;
71937;SDS011;59810;48.800;9.086;2023-07-29T06:25:06;4.27;;;1.33;;
71937;SDS011;59810;48.800;9.086;2023-07-29T06:27:35;3.22;;;1.20;;
71937;SDS011;59810;48.800;9.086;2023-07-29T06:30:00;4.47;;;1.30;;
71937;SDS011;59810;48.800;9.086;2023-07-29T06:32:26;3.83;;;1.40;;
71937;SDS011;59810;48.800;9.086;2023-07-29T06:34:51;4.00;;;1.40;;
71937;SDS011;59810;48.800;9.086;2023-07-29T06:37:19;4.70;;;1.50;;
71937;SDS011;59810;48.800;9.086;2023-07-29T06:39:44;6.45;;;1.50;;
71937;SDS011;59810;48.800;9.086;2023-07-29T06:42:11;6.10;;;1.10;;
71937;SDS011;59810;48.800;9.086;2023-07-29T06:44:37;4.57;;;1.40;;
71937;SDS011;59810;48.800;9.086;2023-07-29T06:47:02;3.80;;;1.20;;
71937;SDS011;59810;48.800;9.086;2023-07-29T06:49:28;5.30;;;1.37;;
71937;SDS011;59810;48.800;9.086;2023-07-29T06:51:53;3.43;;;1.20;;
71937;SDS011;59810;48.800;9.086;2023-07-29T06:54:18;3.57;;;1.20;;
71937;SDS011;59810;48.800;9.086;2023-07-29T06:56:44;4.15;;;1.10;;
71937;SDS011;59810;48.800;9.086;2023-07-29T06:59:09;4.10;;;1.20;;
71937;SDS011;59810;48.800;9.086;2023-07-29T07:01:34;5.87;;;1.30;;
71937;SDS011;59810;48.800;9.086;2023-07-29T07:04:02;3.78;;;1.40;;
71937;SDS011;59810;48.800;9.086;2023-07-29T07:06:27;3.73;;;1.10;;
71937;SDS011;59810;48.800;9.086;2023-07-29T07:08:53;4.17;;;1.43;;
71937;SDS011;59810;48.800;9.086;2023-07-29T07:11:18;4.03;;;1.20;;
71937;SDS011;59810;48.800;9.086;2023-07-29T07:13:44;4.93;;;1.10;;
71937;SDS011;59810;48.800;9.086;2023-07-29T07:16:09;3.30;;;1.20;;
71937;SDS011;59810;48.800;9.086;2023-07-29T07:18:34;3.77;;;1.50;;
71937;SDS011;59810;48.800;9.086;2023-07-29T07:21:00;6.03;;;1.47;;
71937;SDS011;59810;48.800;9.086;2023-07-29T07:23:25;4.00;;;1.30;;
71937;SDS011;59810;48.800;9.086;2023-07-29T07:25:50;4.73;;;1.20;;
71937;SDS011;59810;48.800;9.086;2023-07-29T07:28:16;4.43;;;1.40;;
71937;SDS011;59810;48.800;9.086;2023-07-29T07:30:41;4.03;;;1.30;;
71937;SDS011;59810;48.800;9.086;2023-07-29T07:33:06;3.53;;;1.30;;
71937;SDS011;59810;48.800;9.086;2023-07-29T07:35:32;3.30;;;1.03;;
71937;SDS011;59810;48.800;9.086;2023-07-29T07:37:57;2.93;;;0.97;;
71937;SDS011;59810;48.800;9.086;2023-07-29T07:40:24;4.22;;;0.90;;
71937;SDS011;59810;48.800;9.086;2023-07-29T07:42:49;3.10;;;1.20;;
71937;SDS011;59810;48.800;9.086;2023-07-29T07:45:15;5.05;;;1.75;;
71937;SDS011;59810;48.800;9.086;2023-07-29T07:47:40;3.00;;;1.17;;
71937;SDS011;59810;48.800;9.086;2023-07-29T07:50:05;2.77;;;0.97;;
71937;SDS011;59810;48.800;9.086;2023-07-29T07:52:31;3.80;;;1.00;;
71937;SDS011;59810;48.800;9.086;2023-07-29T07:54:56;4.20;;;1.10;;
71937;SDS011;59810;48.800;9.086;2023-07-29T07:57:24;3.30;;;1.10;;
71937;SDS011;59810;48.800;9.086;2023-07-29T07:59:49;4.27;;;1.10;;
71937;SDS011;59810;48.800;9.086;2023-07-29T08:02:17;2.70;;;0.93;;
71937;SDS011;59810;48.800;9.086;2023-07-29T08:04:45;3.47;;;1.10;;
71937;SDS011;59810;48.800;9.086;2023-07-29T08:07:10;4.40;;;1.47;;
71937;SDS011;59810;48.800;9.086;2023-07-29T08:09:36;5.37;;;1.43;;
71937;SDS011;59810;48.800;9.086;2023-07-29T08:12:03;5.13;;;1.90;;
71937;SDS011;59810;48.800;9.086;2023-07-29T08:14:29;3.67;;;1.30;;
71937;SDS011;59810;48.800;9.086;2023-07-29T08:16:54;4.30;;;1.20;;
71937;SDS011;59810;48.800;9.086;2023-07-29T08:19:19;3.90;;;1.50;;
71937;SDS011;59810;48.800;9.086;2023-07-29T08:21:45;4.80;;;1.70;;
71937;SDS011;59810;48.800;9.086;2023-07-29T08:24:10;5.00;;;1.80;;
71937;SDS011;59810;48.800;9.086;2023-07-29T08:26:35;4.10;;;1.47;;
71937;SDS011;59810;48.800;9.086;2023-07-29T08:29:01;4.00;;;1.50;;
71937;SDS011;59810;48.800;9.086;2023-07-29T08:31:26;4.80;;;1.77;;
71937;SDS011;59810;48.800;9.086;2023-07-29T08:33:51;3.83;;;1.33;;
71937;SDS011;59810;48.800;9.086;2023-07-29T08:36:17;5.47;;;1.67;;
71937;SDS011;59810;48.800;9.086;2023-07-29T08:38:42;5.47;;;1.30;;
71937;SDS011;59810;48.800;9.086;2023-07-29T08:41:16;3.38;;;0.90;;
71937;SDS011;59810;48.800;9.086;2023-07-29T08:43:52;2.87;;;1.10;;
71937;SDS011;59810;48.800;9.086;2023-07-29T08:46:26;3.13;;;1.10;;
71937;SDS011;59810;48.800;9.086;2023-07-29T08:48:53;2.80;;;0.95;;
71937;SDS011;59810;48.800;9.086;2023-07-29T08:51:20;3.40;;;0.93;;
71937;SDS011;59810;48.800;9.086;2023-07-29T08:53:48;3.15;;;1.00;;
71937;SDS011;59810;48.800;9.086;2023-07-29T08:56:14;3.57;;;1.17;;
71937;SDS011;59810;48.800;9.086;2023-07-29T08:58:42;2.28;;;0.93;;
71937;SDS011;59810;48.800;9.086;2023-07-29T09:01:08;3.53;;;0.98;;
71937;SDS011;59810;48.800;9.086;2023-07-29T09:03:33;2.23;;;0.93;;
71937;SDS011;59810;48.800;9.086;2023-07-29T09:05:59;3.00;;;0.85;;
71937;SDS011;59810;48.800;9.086;2023-07-29T09:08:27;3.27;;;0.90;;
71937;SDS011;59810;48.800;9.086;2023-07-29T09:10:53;3.80;;;1.15;;
71937;SDS011;59810;48.800;9.086;2023-07-29T09:13:19;2.58;;;0.85;;
71937;SDS011;59810;48.800;9.086;2023-07-29T09:15:45;2.83;;;1.00;;
71937;SDS011;59810;48.800;9.086;2023-07-29T09:18:11;2.53;;;0.93;;
71937;SDS011;59810;48.800;9.086;2023-07-29T09:20:39;3.13;;;1.27;;
71937;SDS011;59810;48.800;9.086;2023-07-29T09:23:06;4.03;;;1.30;;
71937;SDS011;59810;48.800;9.086;2023-07-29T09:25:33;3.45;;;1.00;;
71937;SDS011;59810;48.800;9.086;2023-07-29T09:27:59;4.30;;;1.10;;
71937;SDS011;59810;48.800;9.086;2023-07-29T09:30:25;2.80;;;1.10;;
71937;SDS011;59810;48.800;9.086;2023-07-29T09:32:55;3.40;;;1.00;;
71937;SDS011;59810;48.800;9.086;2023-07-29T09:35:21;3.47;;;1.33;;
71937;SDS011;59810;48.800;9.086;2023-07-29T09:37:46;2.20;;;0.90;;
71937;SDS011;59810;48.800;9.086;2023-07-29T09:40:15;4.38;;;1.38;;
71937;SDS011;59810;48.800;9.086;2023-07-29T09:42:47;3.45;;;1.20;;
71937;SDS011;59810;48.800;9.086;2023-07-29T09:45:22;3.25;;;1.25;;
71937;SDS011;59810;48.800;9.086;2023-07-29T09:47:49;5.23;;;1.33;;
71937;SDS011;59810;48.800;9.086;2023-07-29T09:50:15;4.05;;;1.38;;
71937;SDS011;59810;48.800;9.086;2023-07-29T09:52:41;3.53;;;1.35;;
71937;SDS011;59810;48.800;9.086;2023-07-29T09:55:06;3.13;;;1.30;;
71937;SDS011;59810;48.800;9.086;2023-07-29T09:57:32;3.65;;;1.38;;
71937;SDS011;59810;48.800;9.086;2023-07-29T09:59:58;3.45;;;1.50;;
71937;SDS011;59810;48.800;9.086;2023-07-29T10:02:24;5.03;;;1.37;;
71937;SDS011;59810;48.800;9.086;2023-07-29T10:04:55;2.92;;;1.20;;
71937;SDS011;59810;48.800;9.086;2023-07-29T10:07:21;3.30;;;1.30;;
71937;SDS011;59810;48.800;9.086;2023-07-29T10:09:47;4.73;;;1.70;;
71937;SDS011;59810;48.800;9.086;2023-07-29T10:12:15;3.72;;;1.48;;
71937;SDS011;59810;48.800;9.086;2023-07-29T10:14:40;3.40;;;1.30;;
71937;SDS011;59810;48.800;9.086;2023-07-29T10:17:06;3.13;;;1.38;;
71937;SDS011;59810;48.800;9.086;2023-07-29T10:19:32;4.82;;;1.17;;
71937;SDS011;59810;48.800;9.086;2023-07-29T10:21:59;3.85;;;1.13;;
71937;SDS011;59810;48.800;9.086;2023-07-29T10:24:32;2.95;;;1.15;;
71937;SDS011;59810;48.800;9.086;2023-07-29T10:26:59;2.57;;;1.07;;
71937;SDS011;59810;48.800;9.086;2023-07-29T10:29:28;2.45;;;0.95;;
71937;SDS011;59810;48.800;9.086;2023-07-29T10:31:57;3.33;;;1.05;;
71937;SDS011;59810;48.800;9.086;2023-07-29T10:34:27;2.83;;;1.13;;
71937;SDS011;59810;48.800;9.086;2023-07-29T10:36:53;3.00;;;0.90;;
71937;SDS011;59810;48.800;9.086;2023-07-29T10:39:19;3.35;;;1.13;;
71937;SDS011;59810;48.800;9.086;2023-07-29T10:41:57;2.80;;;0.97;;
71937;SDS011;59810;48.800;9.086;2023-07-29T10:50:16;2.95;;;1.13;;
71937;SDS011;59810;48.800;9.086;2023-07-29T10:52:43;3.87;;;1.20;;
71937;SDS011;59810;48.800;9.086;2023-07-29T10:55:24;3.58;;;1.40;;
71937;SDS011;59810;48.800;9.086;2023-07-29T11:00:42;3.17;;;1.30;;
71937;SDS011;59810;48.800;9.086;2023-07-29T11:03:11;2.97;;;1.20;;
71937;SDS011;59810;48.800;9.086;2023-07-29T11:05:42;3.15;;;1.20;;
71937;SDS011;59810;48.800;9.086;2023-07-29T11:08:16;3.83;;;1.17;;
71937;SDS011;59810;48.800;9.086;2023-07-29T11:11:05;3.95;;;1.55;;
71937;SDS011;59810;48.800;9.086;2023-07-29T11:13:40;4.60;;;1.40;;
71937;SDS011;59810;48.800;9.086;2023-07-29T11:16:06;3.17;;;1.27;;
71937;SDS011;59810;48.800;9.086;2023-07-29T11:18:35;2.83;;;1.40;;
71937;SDS011;59810;48.800;9.086;2023-07-29T11:21:01;2.77;;;1.20;;
71937;SDS011;59810;48.800;9.086;2023-07-29T11:23:29;3.70;;;1.20;;
71937;SDS011;59810;48.800;9.086;2023-07-29T11:26:02;2.38;;;1.10;;
71937;SDS011;59810;48.800;9.086;2023-07-29T11:28:29;4.43;;;1.10;;
71937;SDS011;59810;48.800;9.086;2023-07-29T11:30:55;2.97;;;1.23;;
71937;SDS011;59810;48.800;9.086;2023-07-29T11:33:22;2.67;;;1.10;;
71937;SDS011;59810;48.800;9.086;2023-07-29T11:35:49;4.10;;;1.40;;
71937;SDS011;59810;48.800;9.086;2023-07-29T11:38:15;2.70;;;1.20;;
71937;SDS011;59810;48.800;9.086;2023-07-29T11:40:41;3.05;;;1.40;;
71937;SDS011;59810;48.800;9.086;2023-07-29T11:43:07;2.97;;;1.23;;
71937;SDS011;59810;48.800;9.086;2023-07-29T11:45:33;3.10;;;1.07;;
71937;SDS011;59810;48.800;9.086;2023-07-29T11:47:58;3.58;;;1.30;;
71937;SDS011;59810;48.800;9.086;2023-07-29T11:50:24;2.93;;;1.07;;
71937;SDS011;59810;48.800;9.086;2023-07-29T11:52:49;3.08;;;1.30;;
71937;SDS011;59810;48.800;9.086;2023-07-29T11:55:15;3.33;;;1.43;;
71937;SDS011;59810;48.800;9.086;2023-07-29T11:57:40;4.33;;;1.40;;
71937;SDS011;59810;48.800;9.086;2023-07-29T12:00:08;3.80;;;1.10;;
71937;SDS011;59810;48.800;9.086;2023-07-29T12:02:38;5.43;;;1.58;;
71937;SDS011;59810;48.800;9.086;2023-07-29T12:05:05;3.20;;;1.35;;
71937;SDS011;59810;48.800;9.086;2023-07-29T12:07:32;3.20;;;1.40;;
71937;SDS011;59810;48.800;9.086;2023-07-29T12:10:01;6.95;;;3.13;;
71937;SDS011;59810;48.800;9.086;2023-07-29T12:12:28;4.30;;;1.50;;
71937;SDS011;59810;48.800;9.086;2023-07-29T12:14:54;3.13;;;1.35;;
71937;SDS011;59810;48.800;9.086;2023-07-29T12:17:20;3.50;;;1.60;;
71937;SDS011;59810;48.800;9.086;2023-07-29T12:19:45;3.30;;;1.57;;
71937;SDS011;59810;48.800;9.086;2023-07-29T12:22:10;2.90;;;1.40;;
71937;SDS011;59810;48.800;9.086;2023-07-29T12:24:37;4.90;;;1.80;;
71937;SDS011;59810;48.800;9.086;2023-07-29T12:27:05;4.45;;;1.52;;
71937;SDS011;59810;48.800;9.086;2023-07-29T12:29:39;3.58;;;1.50;;
71937;SDS011;59810;48.800;9.086;2023-07-29T12:32:05;3.43;;;1.60;;
71937;SDS011;59810;48.800;9.086;2023-07-29T12:34:31;4.38;;;1.73;;
71937;SDS011;59810;48.800;9.086;2023-07-29T12:36:58;4.18;;;1.88;;
71937;SDS011;59810;48.800;9.086;2023-07-29T12:39:25;4.07;;;1.73;;
71937;SDS011;59810;48.800;9.086;2023-07-29T12:41:52;3.50;;;1.35;;
71937;SDS011;59810;48.800;9.086;2023-07-29T12:44:19;3.50;;;1.73;;
71937;SDS011;59810;48.800;9.086;2023-07-29T12:46:44;4.57;;;1.70;;
71937;SDS011;59810;48.800;9.086;2023-07-29T12:49:10;5.27;;;1.70;;
71937;SDS011;59810;48.800;9.086;2023-07-29T12:51:35;3.90;;;1.80;;
71937;SDS011;59810;48.800;9.086;2023-07-29T12:54:02;3.80;;;1.50;;
71937;SDS011;59810;48.800;9.086;2023-07-29T12:56:28;3.72;;;1.63;;
71937;SDS011;59810;48.800;9.086;2023-07-29T12:58:54;2.90;;;1.37;;
71937;SDS011;59810;48.800;9.086;2023-07-29T13:01:20;3.80;;;1.60;;
71937;SDS011;59810;48.800;9.086;2023-07-29T13:03:45;3.40;;;1.80;;
71937;SDS011;59810;48.800;9.086;2023-07-29T13:06:11;3.30;;;1.80;;
71937;SDS011;59810;48.800;9.086;2023-07-29T13:08:36;3.70;;;1.50;;
71937;SDS011;59810;48.800;9.086;2023-07-29T13:11:02;5.00;;;2.00;;
71937;SDS011;59810;48.800;9.086;2023-07-29T13:13:28;4.05;;;1.50;;
71937;SDS011;59810;48.800;9.086;2023-07-29T13:15:54;4.00;;;1.80;;
71937;SDS011;59810;48.800;9.086;2023-07-29T13:18:21;4.05;;;1.73;;
71937;SDS011;59810;48.800;9.086;2023-07-29T13:20:46;3.50;;;1.73;;
71937;SDS011;59810;48.800;9.086;2023-07-29T13:23:12;3.65;;;1.35;;
71937;SDS011;59810;48.800;9.086;2023-07-29T13:25:37;4.23;;;1.90;;
71937;SDS011;59810;48.800;9.086;2023-07-29T13:28:03;3.43;;;1.67;;
71937;SDS011;59810;48.800;9.086;2023-07-29T13:30:28;3.67;;;1.70;;
71937;SDS011;59810;48.800;9.086;2023-07-29T13:33:06;4.20;;;1.90;;
71937;SDS011;59810;48.800;9.086;2023-07-29T13:35:32;4.72;;;1.80;;
71937;SDS011;59810;48.800;9.086;2023-07-29T13:37:57;3.17;;;1.60;;
71937;SDS011;59810;48.800;9.086;2023-07-29T13:40:23;7.30;;;1.80;;
71937;SDS011;59810;48.800;9.086;2023-07-29T13:42:48;4.40;;;1.60;;
71937;SDS011;59810;48.800;9.086;2023-07-29T13:45:14;4.37;;;1.63;;
71937;SDS011;59810;48.800;9.086;2023-07-29T13:47:39;4.93;;;1.63;;
71937;SDS011;59810;48.800;9.086;2023-07-29T13:50:05;3.97;;;1.40;;
71937;SDS011;59810;48.800;9.086;2023-07-29T13:52:32;3.83;;;1.40;;
71937;SDS011;59810;48.800;9.086;2023-07-29T13:54:58;3.55;;;1.60;;
71937;SDS011;59810;48.800;9.086;2023-07-29T13:57:23;3.30;;;1.47;;
71937;SDS011;59810;48.800;9.086;2023-07-29T13:59:48;3.27;;;1.50;;
71937;SDS011;59810;48.800;9.086;2023-07-29T14:02:13;4.17;;;1.37;;
71937;SDS011;59810;48.800;9.086;2023-07-29T14:04:39;3.57;;;1.43;;
71937;SDS011;59810;48.800;9.086;2023-07-29T14:07:04;4.10;;;1.57;;
71937;SDS011;59810;48.800;9.086;2023-07-29T14:09:32;3.17;;;1.52;;
71937;SDS011;59810;48.800;9.086;2023-07-29T14:11:58;4.20;;;1.90;;
71937;SDS011;59810;48.800;9.086;2023-07-29T14:14:23;4.00;;;1.57;;
71937;SDS011;59810;48.800;9.086;2023-07-29T14:16:48;3.07;;;1.43;;
71937;SDS011;59810;48.800;9.086;2023-07-29T14:19:14;3.50;;;1.70;;
71937;SDS011;59810;48.800;9.086;2023-07-29T14:21:40;3.33;;;1.50;;
71937;SDS011;59810;48.800;9.086;2023-07-29T14:24:05;4.40;;;1.97;;
71937;SDS011;59810;48.800;9.086;2023-07-29T14:26:31;3.92;;;1.77;;
71937;SDS011;59810;48.800;9.086;2023-07-29T14:28:56;3.87;;;1.60;;
71937;SDS011;59810;48.800;9.086;2023-07-29T14:31:22;3.90;;;1.90;;
71937;SDS011;59810;48.800;9.086;2023-07-29T14:33:47;4.03;;;1.30;;
71937;SDS011;59810;48.800;9.086;2023-07-29T14:36:14;4.22;;;1.83;;
71937;SDS011;59810;48.800;9.086;2023-07-29T14:38:40;3.17;;;1.50;;
71937;SDS011;59810;48.800;9.086;2023-07-29T14:41:05;4.10;;;1.70;;
71937;SDS011;59810;48.800;9.086;2023-07-29T14:43:31;4.23;;;1.90;;
71937;SDS011;59810;48.800;9.086;2023-07-29T14:45:56;3.90;;;1.60;;
71937;SDS011;59810;48.800;9.086;2023-07-29T14:48:22;3.55;;;1.50;;
71937;SDS011;59810;48.800;9.086;2023-07-29T14:50:48;3.92;;;1.92;;
71937;SDS011;59810;48.800;9.086;2023-07-29T14:53:13;4.07;;;1.80;;
71937;SDS011;59810;48.800;9.086;2023-07-29T14:55:39;3.50;;;1.70;;
71937;SDS011;59810;48.800;9.086;2023-07-29T14:58:04;3.53;;;1.60;;
71937;SDS011;59810;48.800;9.086;2023-07-29T15:00:29;5.30;;;2.03;;